Time;durP1;ratioP1;P1;durP2;ratioP2;P2;SDS_P1;SDS_P2;PMS_P1;PMS_P2;Temp;Humidity;BMP_temperature;BMP_pressure;BME280_temperature;BME280_humidity;BME280_pressure;Samples;Min_cycle;Max_cycle;Signal;HPM_P1;HPM_P2
2024/01/13 00:02:08;;;;;;;49.90;28.13;;;;;;;;;;5032324;28;20040;-47
2024/01/13 00:04:34;;;;;;;43.70;25.65;;;;;;;;;;5014231;28;20490;-47
2024/01/13 00:07:00;;;;;;;39.30;25.08;;;;;;;;;;5032369;28;20032;-47
2024/01/13 00:09:27;;;;;;;38.57;26.00;;;;;;;;;;5032489;28;20475;-49
2024/01/13 00:11:53;;;;;;;40.97;25.67;;;;;;;;;;5032481;28;20054;-50
2024/01/13 00:14:19;;;;;;;41.17;24.75;;;;;;;;;;5032254;28;20522;-50
2024/01/13 00:16:45;;;;;;;47.57;26.43;;;;;;;;;;5031287;28;20014;-50
2024/01/13 00:19:11;;;;;;;47.58;27.95;;;;;;;;;;5032321;28;20451;-49
2024/01/13 00:21:38;;;;;;;43.72;26.00;;;;;;;;;;5014157;28;20033;-50
2024/01/13 00:24:04;;;;;;;49.17;29.00;;;;;;;;;;5031896;28;20137;-48
2024/01/13 00:26:30;;;;;;;46.70;27.95;;;;;;;;;;5014141;28;20484;-47
2024/01/13 00:28:57;;;;;;;42.63;27.00;;;;;;;;;;5014426;28;20030;-51
2024/01/13 00:31:23;;;;;;;40.60;24.85;;;;;;;;;;5013820;28;20491;-51
2024/01/13 00:33:49;;;;;;;44.73;25.43;;;;;;;;;;5031742;28;20021;-47
2024/01/13 00:36:15;;;;;;;38.30;24.90;;;;;;;;;;5013591;28;20126;-50
2024/01/13 00:38:42;;;;;;;40.50;25.37;;;;;;;;;;5032023;28;20026;-52
2024/01/13 00:41:08;;;;;;;50.08;27.30;;;;;;;;;;5032170;28;20343;-51
2024/01/13 00:43:34;;;;;;;47.35;26.95;;;;;;;;;;5014407;28;20637;-48
2024/01/13 00:46:00;;;;;;;41.58;25.15;;;;;;;;;;5012978;28;20037;-47
2024/01/13 00:48:26;;;;;;;42.80;25.47;;;;;;;;;;5031974;28;20030;-51
2024/01/13 00:50:52;;;;;;;39.93;25.63;;;;;;;;;;5031498;28;20030;-46
2024/01/13 00:53:19;;;;;;;49.30;29.75;;;;;;;;;;5031522;28;20048;-45
2024/01/13 00:55:45;;;;;;;46.00;27.37;;;;;;;;;;5025140;28;20076;-48
2024/01/13 00:58:11;;;;;;;47.23;28.47;;;;;;;;;;5031639;28;20013;-45
2024/01/13 01:00:37;;;;;;;49.67;29.50;;;;;;;;;;5031155;28;20267;-47
2024/01/13 01:03:04;;;;;;;53.90;30.43;;;;;;;;;;5031880;28;20403;-49
2024/01/13 01:05:30;;;;;;;50.30;26.83;;;;;;;;;;5031199;28;20036;-47
2024/01/13 01:07:56;;;;;;;48.93;29.90;;;;;;;;;;5031234;28;20045;-47
2024/01/13 01:10:22;;;;;;;42.97;27.00;;;;;;;;;;5030949;28;20039;-46
2024/01/13 01:12:48;;;;;;;48.03;27.27;;;;;;;;;;5032061;28;20033;-47
2024/01/13 01:15:14;;;;;;;44.35;26.92;;;;;;;;;;5026183;28;20033;-49
2024/01/13 01:17:41;;;;;;;46.20;26.57;;;;;;;;;;5031339;28;20032;-47
2024/01/13 01:20:07;;;;;;;41.13;27.60;;;;;;;;;;5031362;28;20267;-47
2024/01/13 01:22:33;;;;;;;43.92;27.17;;;;;;;;;;5031215;28;20033;-50
2024/01/13 01:24:59;;;;;;;44.47;26.27;;;;;;;;;;5031095;28;20026;-48
2024/01/13 01:27:26;;;;;;;50.20;26.67;;;;;;;;;;5031062;28;20044;-48
2024/01/13 01:29:52;;;;;;;39.60;24.90;;;;;;;;;;5031126;28;20752;-47
2024/01/13 01:32:18;;;;;;;37.53;25.90;;;;;;;;;;5013501;28;20026;-47
2024/01/13 01:34:45;;;;;;;38.07;24.53;;;;;;;;;;5030965;28;20064;-47
2024/01/13 01:37:11;;;;;;;34.17;21.97;;;;;;;;;;5030886;28;20476;-47
2024/01/13 01:39:37;;;;;;;33.47;23.27;;;;;;;;;;5031055;28;20407;-47
2024/01/13 01:42:03;;;;;;;32.40;23.98;;;;;;;;;;5031089;28;20376;-47
2024/01/13 01:44:29;;;;;;;35.15;22.83;;;;;;;;;;5013165;28;20041;-47
2024/01/13 01:46:58;;;;;;;39.00;24.77;;;;;;;;;;5013087;28;20042;-50
2024/01/13 01:49:24;;;;;;;35.53;24.70;;;;;;;;;;5030767;28;20071;-51
2024/01/13 01:51:50;;;;;;;33.37;23.27;;;;;;;;;;4997155;28;20026;-47
2024/01/13 01:54:17;;;;;;;34.63;24.53;;;;;;;;;;5030707;28;20294;-47
2024/01/13 01:56:43;;;;;;;36.40;25.17;;;;;;;;;;5030936;28;20428;-47
2024/01/13 01:59:09;;;;;;;31.55;23.40;;;;;;;;;;5033527;28;20034;-47
2024/01/13 02:01:36;;;;;;;31.53;21.97;;;;;;;;;;5034868;28;20472;-46
2024/01/13 02:04:03;;;;;;;29.85;23.40;;;;;;;;;;5016656;28;20094;-47
2024/01/13 02:06:30;;;;;;;;;;;;;;;;;;5034976;28;20391;-47
2024/01/13 02:08:56;;;;;;;31.88;23.48;;;;;;;;;;5034307;28;20010;-51
2024/01/13 02:11:22;;;;;;;28.77;22.60;;;;;;;;;;5034212;28;20039;-49
2024/01/13 02:13:49;;;;;;;36.78;25.33;;;;;;;;;;5016886;28;20747;-48
2024/01/13 02:16:16;;;;;;;32.70;23.55;;;;;;;;;;5016582;28;20547;-47
2024/01/13 02:18:42;;;;;;;30.85;22.23;;;;;;;;;;5034897;28;20309;-48
2024/01/13 02:21:09;;;;;;;34.47;25.20;;;;;;;;;;5034074;28;20398;-49
2024/01/13 02:23:35;;;;;;;33.70;25.60;;;;;;;;;;5016768;28;20029;-47
2024/01/13 02:26:01;;;;;;;33.30;24.33;;;;;;;;;;5000015;28;20075;-47
2024/01/13 02:28:27;;;;;;;31.95;24.35;;;;;;;;;;5034132;28;20075;-48
2024/01/13 02:30:54;;;;;;;34.45;22.95;;;;;;;;;;5034090;28;20032;-47
2024/01/13 02:33:20;;;;;;;33.67;23.80;;;;;;;;;;5016601;28;20037;-47
2024/01/13 02:35:46;;;;;;;36.80;24.83;;;;;;;;;;5016452;28;20350;-47
2024/01/13 02:38:12;;;;;;;40.97;25.95;;;;;;;;;;5034104;28;20368;-47
2024/01/13 02:40:38;;;;;;;35.60;24.95;;;;;;;;;;5034138;28;20508;-47
2024/01/13 02:43:05;;;;;;;37.83;24.83;;;;;;;;;;5033492;28;20128;-55
2024/01/13 02:45:31;;;;;;;37.97;24.93;;;;;;;;;;5033922;28;20087;-50
2024/01/13 02:48:05;;;;;;;39.45;27.05;;;;;;;;;;5033913;28;20033;-49
2024/01/13 02:50:31;;;;;;;36.47;25.33;;;;;;;;;;5033879;28;20030;-48
2024/01/13 02:52:58;;;;;;;43.10;26.33;;;;;;;;;;5016220;28;20026;-47
2024/01/13 02:55:24;;;;;;;38.13;26.20;;;;;;;;;;5033855;28;20052;-48
2024/01/13 02:57:50;;;;;;;40.03;27.57;;;;;;;;;;5016108;28;20088;-49
2024/01/13 03:00:17;;;;;;;40.53;25.53;;;;;;;;;;5016196;28;20029;-48
2024/01/13 03:02:44;;;;;;;35.58;24.42;;;;;;;;;;5033735;28;20260;-52
2024/01/13 03:05:10;;;;;;;38.83;25.90;;;;;;;;;;5033381;28;20036;-48
2024/01/13 03:07:37;;;;;;;38.45;25.10;;;;;;;;;;5033552;28;20034;-46
2024/01/13 03:10:03;;;;;;;42.00;28.43;;;;;;;;;;5033018;28;20061;-50
2024/01/13 03:12:29;;;;;;;41.55;27.63;;;;;;;;;;5033384;28;20434;-47
2024/01/13 03:14:56;;;;;;;39.27;27.17;;;;;;;;;;4999009;28;20028;-51
2024/01/13 03:17:23;;;;;;;46.22;28.00;;;;;;;;;;5033083;28;20057;-47
2024/01/13 03:19:49;;;;;;;36.70;26.10;;;;;;;;;;5015601;28;20053;-49
2024/01/13 03:22:15;;;;;;;44.97;30.10;;;;;;;;;;5033144;28;20396;-51
2024/01/13 03:24:41;;;;;;;42.13;26.30;;;;;;;;;;5015302;28;20661;-47
2024/01/13 03:27:07;;;;;;;41.13;27.27;;;;;;;;;;5032931;28;20591;-47
2024/01/13 03:29:33;;;;;;;39.22;27.45;;;;;;;;;;5033185;28;20385;-47
2024/01/13 03:32:00;;;;;;;40.17;27.53;;;;;;;;;;5032951;28;20104;-52
2024/01/13 03:34:26;;;;;;;37.40;22.10;;;;;;;;;;5032836;28;20629;-53
2024/01/13 03:36:52;;;;;;;43.42;27.48;;;;;;;;;;5032736;28;20025;-50
2024/01/13 03:39:18;;;;;;;44.37;28.17;;;;;;;;;;5033068;28;20061;-50
2024/01/13 03:41:44;;;;;;;38.87;27.20;;;;;;;;;;5014825;28;20056;-47
2024/01/13 03:44:10;;;;;;;43.38;29.23;;;;;;;;;;5032727;28;20392;-48
2024/01/13 03:46:37;;;;;;;42.07;27.57;;;;;;;;;;5031759;28;20075;-49
2024/01/13 03:49:03;;;;;;;41.00;27.93;;;;;;;;;;5013863;28;20037;-47
2024/01/13 03:51:29;;;;;;;40.65;26.55;;;;;;;;;;5014169;28;20444;-51
2024/01/13 03:53:56;;;;;;;40.17;27.63;;;;;;;;;;5032192;28;20021;-52
2024/01/13 03:56:22;;;;;;;36.40;26.20;;;;;;;;;;5014283;28;20037;-47
2024/01/13 03:58:48;;;;;;;33.60;25.73;;;;;;;;;;5015036;28;20522;-51
2024/01/13 04:01:15;;;;;;;39.03;28.07;;;;;;;;;;5014550;28;20297;-53
2024/01/13 04:03:42;;;;;;;39.85;27.67;;;;;;;;;;5030990;28;20510;-47
2024/01/13 04:06:08;;;;;;;40.27;27.63;;;;;;;;;;5032506;28;20030;-48
2024/01/13 04:08:34;;;;;;;41.15;24.80;;;;;;;;;;5014597;28;20113;-51
2024/01/13 04:11:00;;;;;;;45.33;29.23;;;;;;;;;;5032077;28;20029;-52
2024/01/13 04:13:27;;;;;;;46.80;28.75;;;;;;;;;;5031714;28;20022;-48
2024/01/13 04:15:53;;;;;;;42.07;27.57;;;;;;;;;;5031210;28;20080;-48
2024/01/13 04:18:19;;;;;;;41.73;28.67;;;;;;;;;;5014471;28;20501;-48
2024/01/13 04:20:45;;;;;;;38.33;27.30;;;;;;;;;;5031732;28;20322;-47
2024/01/13 04:23:11;;;;;;;41.87;26.43;;;;;;;;;;4998259;28;20037;-49
2024/01/13 04:25:38;;;;;;;42.13;26.60;;;;;;;;;;5032223;28;20029;-48
2024/01/13 04:28:04;;;;;;;42.27;27.37;;;;;;;;;;5031973;28;20037;-47
2024/01/13 04:30:30;;;;;;;42.80;28.67;;;;;;;;;;5031823;28;20789;-51
2024/01/13 04:32:57;;;;;;;40.88;27.10;;;;;;;;;;5031800;28;20264;-48
2024/01/13 04:35:23;;;;;;;44.50;28.35;;;;;;;;;;5031901;28;20135;-49
2024/01/13 04:37:49;;;;;;;49.47;30.70;;;;;;;;;;5056570;22;20041;-48
2024/01/13 04:40:15;;;;;;;40.77;28.17;;;;;;;;;;5031591;28;20097;-50
2024/01/13 04:42:42;;;;;;;45.13;31.03;;;;;;;;;;5031840;28;20048;-47
2024/01/13 04:45:08;;;;;;;46.80;29.93;;;;;;;;;;5031637;28;20263;-47
2024/01/13 04:47:34;;;;;;;40.08;26.90;;;;;;;;;;5007455;28;20032;-50
2024/01/13 04:50:00;;;;;;;44.53;29.55;;;;;;;;;;5015507;28;20025;-45
2024/01/13 04:52:27;;;;;;;38.77;27.90;;;;;;;;;;5033664;28;20033;-48
2024/01/13 04:54:53;;;;;;;41.33;28.80;;;;;;;;;;5051488;28;20098;-48
2024/01/13 04:57:19;;;;;;;45.27;31.03;;;;;;;;;;5051335;28;20100;-47
2024/01/13 04:59:45;;;;;;;44.17;29.03;;;;;;;;;;5051431;28;20472;-46
2024/01/13 05:02:11;;;;;;;47.53;30.30;;;;;;;;;;5051587;28;20119;-46
2024/01/13 05:04:39;;;;;;;46.53;30.67;;;;;;;;;;5051424;28;20267;-47
2024/01/13 05:07:05;;;;;;;46.33;29.90;;;;;;;;;;5051434;28;20028;-46
2024/01/13 05:09:31;;;;;;;47.85;31.65;;;;;;;;;;5033548;28;20040;-48
2024/01/13 05:11:58;;;;;;;46.47;30.17;;;;;;;;;;5051534;28;20029;-46
2024/01/13 05:14:24;;;;;;;47.20;31.50;;;;;;;;;;5051278;28;20297;-47
2024/01/13 05:16:50;;;;;;;47.57;31.70;;;;;;;;;;5052021;28;20493;-47
2024/01/13 05:19:18;;;;;;;48.67;32.17;;;;;;;;;;5051561;28;20518;-46
2024/01/13 05:21:44;;;;;;;49.17;30.63;;;;;;;;;;5051546;28;20036;-47
2024/01/13 05:24:12;;;;;;;53.50;32.67;;;;;;;;;;5051219;28;20032;-46
2024/01/13 05:26:38;;;;;;;50.03;31.15;;;;;;;;;;5051358;28;20031;-47
2024/01/13 05:29:04;;;;;;;48.88;31.40;;;;;;;;;;5051296;28;20033;-47
2024/01/13 05:31:31;;;;;;;49.97;30.97;;;;;;;;;;5051396;28;20100;-50
2024/01/13 05:33:57;;;;;;;50.28;31.30;;;;;;;;;;5037253;28;20052;-47
2024/01/13 05:36:23;;;;;;;47.37;31.47;;;;;;;;;;5055202;28;20033;-46
2024/01/13 05:38:49;;;;;;;45.73;31.63;;;;;;;;;;5055404;28;20116;-46
2024/01/13 05:41:15;;;;;;;54.20;34.27;;;;;;;;;;5055253;28;20035;-49
2024/01/13 05:43:41;;;;;;;54.87;32.83;;;;;;;;;;5054992;28;20126;-48
2024/01/13 05:46:11;;;;;;;54.67;34.90;;;;;;;;;;5037351;28;20041;-47
2024/01/13 05:48:37;;;;;;;56.13;34.38;;;;;;;;;;5055083;28;20031;-46
2024/01/13 05:51:04;;;;;;;60.37;32.90;;;;;;;;;;5037088;28;20075;-50
2024/01/13 05:53:30;;;;;;;47.03;30.48;;;;;;;;;;5037030;28;20255;-47
2024/01/13 05:55:56;;;;;;;53.37;31.77;;;;;;;;;;5037285;28;20029;-48
2024/01/13 05:58:22;;;;;;;64.07;34.17;;;;;;;;;;5054759;28;20260;-47
2024/01/13 06:00:48;;;;;;;55.73;33.10;;;;;;;;;;5054833;28;20039;-48
2024/01/13 06:03:14;;;;;;;50.53;33.93;;;;;;;;;;5020451;28;20470;-46
2024/01/13 06:05:41;;;;;;;55.67;33.47;;;;;;;;;;5054539;28;20024;-47
2024/01/13 06:08:07;;;;;;;52.70;32.23;;;;;;;;;;5036885;28;20749;-47
2024/01/13 06:10:34;;;;;;;55.73;33.97;;;;;;;;;;5054766;28;20025;-48
2024/01/13 06:13:01;;;;;;;54.25;32.45;;;;;;;;;;5054534;28;20021;-47
2024/01/13 06:15:28;;;;;;;;;;;;;;;;;;5055069;28;20036;-46
2024/01/13 06:17:54;;;;;;;58.72;34.30;;;;;;;;;;5036651;28;19988;-46
2024/01/13 06:20:20;;;;;;;47.60;27.35;;;;;;;;;;5054531;28;20107;-47
2024/01/13 06:22:46;;;;;;;59.30;35.37;;;;;;;;;;5036752;28;20530;-46
2024/01/13 06:25:13;;;;;;;57.23;34.20;;;;;;;;;;5054293;28;20024;-48
2024/01/13 06:27:39;;;;;;;68.00;37.30;;;;;;;;;;5054210;28;20025;-46
2024/01/13 06:30:06;;;;;;;55.55;35.25;;;;;;;;;;5036538;28;20086;-46
2024/01/13 06:32:33;;;;;;;63.45;37.38;;;;;;;;;;5036368;28;20548;-46
2024/01/13 06:34:59;;;;;;;63.97;37.55;;;;;;;;;;5054028;28;20040;-49
2024/01/13 06:37:25;;;;;;;67.67;36.27;;;;;;;;;;5054100;28;20486;-49
2024/01/13 06:39:51;;;;;;;70.75;37.00;;;;;;;;;;5036458;28;20279;-46
2024/01/13 06:42:18;;;;;;;71.50;39.38;;;;;;;;;;5054159;28;20033;-47
2024/01/13 06:44:44;;;;;;;75.40;38.88;;;;;;;;;;5053396;28;20485;-47
2024/01/13 06:47:10;;;;;;;103.40;41.50;;;;;;;;;;5053955;28;20387;-46
2024/01/13 06:49:37;;;;;;;110.57;46.28;;;;;;;;;;5053926;28;20406;-50
2024/01/13 06:52:03;;;;;;;114.07;39.47;;;;;;;;;;5036073;28;20060;-46
2024/01/13 06:54:29;;;;;;;147.25;47.20;;;;;;;;;;5053699;28;20806;-49
2024/01/13 06:56:56;;;;;;;132.45;47.00;;;;;;;;;;5054077;28;20388;-48
2024/01/13 06:59:22;;;;;;;145.50;49.03;;;;;;;;;;5053819;28;20033;-47
2024/01/13 07:01:48;;;;;;;185.53;47.83;;;;;;;;;;5053751;28;20036;-48
2024/01/13 07:04:14;;;;;;;145.48;45.97;;;;;;;;;;5053526;28;20029;-49
2024/01/13 07:06:41;;;;;;;142.20;46.73;;;;;;;;;;5053647;28;20483;-50
2024/01/13 07:09:07;;;;;;;189.90;53.53;;;;;;;;;;5053487;28;20259;-46
2024/01/13 07:11:33;;;;;;;174.57;50.93;;;;;;;;;;5053554;28;20021;-50
2024/01/13 07:13:59;;;;;;;132.27;45.40;;;;;;;;;;5053308;28;20263;-51
2024/01/13 07:16:26;;;;;;;135.87;46.20;;;;;;;;;;5035496;28;20021;-48
2024/01/13 07:18:52;;;;;;;173.73;54.40;;;;;;;;;;5053441;28;20024;-49
2024/01/13 07:21:18;;;;;;;153.40;49.73;;;;;;;;;;5053437;28;20025;-50
2024/01/13 07:23:44;;;;;;;138.93;50.97;;;;;;;;;;5053196;28;20057;-48
2024/01/13 07:26:10;;;;;;;163.33;52.27;;;;;;;;;;5053195;28;20394;-47
2024/01/13 07:28:37;;;;;;;123.80;47.83;;;;;;;;;;5053384;28;20606;-49
2024/01/13 07:31:03;;;;;;;138.93;48.17;;;;;;;;;;5053048;28;20029;-48
2024/01/13 07:33:29;;;;;;;140.73;46.88;;;;;;;;;;5035187;28;20029;-48
2024/01/13 07:35:56;;;;;;;133.57;46.53;;;;;;;;;;5035397;28;20037;-48
2024/01/13 07:38:22;;;;;;;172.45;49.30;;;;;;;;;;5035034;28;20037;-47
2024/01/13 07:40:48;;;;;;;141.80;47.23;;;;;;;;;;5035084;28;20098;-50
2024/01/13 07:43:14;;;;;;;127.40;48.60;;;;;;;;;;5035010;28;20317;-49
2024/01/13 07:45:41;;;;;;;150.70;50.40;;;;;;;;;;5052890;28;20049;-50
2024/01/13 07:48:07;;;;;;;140.57;48.72;;;;;;;;;;5035044;28;20255;-47
2024/01/13 07:50:33;;;;;;;106.90;47.47;;;;;;;;;;5018395;28;20406;-50
2024/01/13 07:52:59;;;;;;;166.17;52.20;;;;;;;;;;5035022;28;20025;-48
2024/01/13 07:55:26;;;;;;;126.28;51.53;;;;;;;;;;5033877;28;20031;-50
2024/01/13 07:57:52;;;;;;;223.90;59.10;;;;;;;;;;5034470;28;20033;-49
2024/01/13 08:00:19;;;;;;;139.90;52.30;;;;;;;;;;5034870;28;20029;-48
2024/01/13 08:02:45;;;;;;;157.35;52.78;;;;;;;;;;5052609;28;20063;-46
2024/01/13 08:05:12;;;;;;;165.67;53.03;;;;;;;;;;5052370;28;20107;-47
2024/01/13 08:07:38;;;;;;;252.25;61.15;;;;;;;;;;5052392;28;20063;-47
2024/01/13 08:10:05;;;;;;;151.73;59.37;;;;;;;;;;5052570;28;20031;-46
2024/01/13 08:12:31;;;;;;;202.30;56.13;;;;;;;;;;5052693;28;20753;-46
2024/01/13 08:14:57;;;;;;;187.40;59.23;;;;;;;;;;5052236;28;20079;-47
2024/01/13 08:17:25;;;;;;;232.73;58.57;;;;;;;;;;5052366;28;20021;-47
2024/01/13 08:19:51;;;;;;;251.57;68.05;;;;;;;;;;5052265;28;20025;-47
2024/01/13 08:22:17;;;;;;;167.53;53.73;;;;;;;;;;5052266;28;20020;-48
2024/01/13 08:24:43;;;;;;;281.07;63.77;;;;;;;;;;5052023;28;20080;-47
2024/01/13 08:27:10;;;;;;;334.40;81.57;;;;;;;;;;5052043;28;20036;-48
2024/01/13 08:29:36;;;;;;;222.88;64.45;;;;;;;;;;5052054;28;20540;-47
2024/01/13 08:32:02;;;;;;;265.80;67.07;;;;;;;;;;5052041;28;20044;-47
2024/01/13 08:34:28;;;;;;;341.50;70.30;;;;;;;;;;5051891;28;20134;-46
2024/01/13 08:36:54;;;;;;;264.70;70.97;;;;;;;;;;5051864;28;20059;-47
2024/01/13 08:39:20;;;;;;;320.97;78.90;;;;;;;;;;5051932;28;20389;-47
2024/01/13 08:41:47;;;;;;;327.00;75.90;;;;;;;;;;5034182;28;20459;-47
2024/01/13 08:44:15;;;;;;;165.40;63.53;;;;;;;;;;5051711;28;20032;-46
2024/01/13 08:46:41;;;;;;;276.27;68.38;;;;;;;;;;5051717;28;20091;-48
2024/01/13 08:49:08;;;;;;;225.23;63.03;;;;;;;;;;5033844;28;20029;-47
2024/01/13 08:51:34;;;;;;;260.25;65.80;;;;;;;;;;5033978;28;20324;-46
2024/01/13 08:54:01;;;;;;;317.48;71.38;;;;;;;;;;5050583;28;20083;-47
2024/01/13 08:56:27;;;;;;;282.05;70.15;;;;;;;;;;5051322;28;20433;-47
2024/01/13 08:58:53;;;;;;;270.20;70.97;;;;;;;;;;5051209;28;20032;-47
2024/01/13 09:01:19;;;;;;;212.90;66.73;;;;;;;;;;5033040;28;20376;-47
2024/01/13 09:03:46;;;;;;;374.73;90.37;;;;;;;;;;5050837;28;20021;-50
2024/01/13 09:06:12;;;;;;;421.55;96.53;;;;;;;;;;5033350;28;20383;-47
2024/01/13 09:08:39;;;;;;;300.25;77.60;;;;;;;;;;5050686;28;20029;-47
2024/01/13 09:11:05;;;;;;;464.30;90.47;;;;;;;;;;5051304;28;20120;-46
2024/01/13 09:13:31;;;;;;;346.70;83.07;;;;;;;;;;5050943;28;20028;-47
2024/01/13 09:15:58;;;;;;;341.23;84.00;;;;;;;;;;5033271;28;20028;-49
2024/01/13 09:18:25;;;;;;;370.70;80.10;;;;;;;;;;5054831;28;20486;-48
2024/01/13 09:20:51;;;;;;;326.42;83.45;;;;;;;;;;5033002;28;20033;-46
2024/01/13 09:23:17;;;;;;;320.80;78.50;;;;;;;;;;5033389;28;20032;-49
2024/01/13 09:25:43;;;;;;;324.25;79.13;;;;;;;;;;5050615;28;20110;-46
2024/01/13 09:28:10;;;;;;;266.87;76.80;;;;;;;;;;5050578;28;20124;-47
2024/01/13 09:30:36;;;;;;;303.17;77.17;;;;;;;;;;5045017;28;20068;-46
2024/01/13 09:33:04;;;;;;;274.67;78.95;;;;;;;;;;5033217;28;20521;-47
2024/01/13 09:35:31;;;;;;;343.92;85.15;;;;;;;;;;5050902;28;20031;-47
2024/01/13 09:38:00;;;;;;;503.03;110.77;;;;;;;;;;5051055;28;20025;-47
2024/01/13 09:40:26;;;;;;;378.20;93.72;;;;;;;;;;5050600;28;20275;-47
2024/01/13 09:43:11;;;;;;;349.95;89.20;;;;;;;;;;5051162;28;20052;-48
2024/01/13 09:45:38;;;;;;;419.70;96.53;;;;;;;;;;5050534;28;20033;-47
2024/01/13 09:48:06;;;;;;;284.42;81.97;;;;;;;;;;5050873;28;20485;-50
2024/01/13 09:50:32;;;;;;;372.52;94.82;;;;;;;;;;5050881;28;20484;-46
2024/01/13 09:53:00;;;;;;;299.17;81.17;;;;;;;;;;5054408;28;20025;-48
2024/01/13 09:55:28;;;;;;;304.23;80.25;;;;;;;;;;5050749;28;20579;-47
2024/01/13 09:57:54;;;;;;;522.90;132.07;;;;;;;;;;5047778;28;20032;-47
2024/01/13 10:00:20;;;;;;;267.67;81.93;;;;;;;;;;5045400;28;20021;-47
2024/01/13 10:02:46;;;;;;;295.53;85.03;;;;;;;;;;5049952;28;20025;-47
2024/01/13 10:05:12;;;;;;;370.63;93.35;;;;;;;;;;5032756;28;20487;-47
2024/01/13 10:07:42;;;;;;;384.60;102.37;;;;;;;;;;5049702;28;20025;-48
2024/01/13 10:10:08;;;;;;;311.55;85.57;;;;;;;;;;5050866;28;20021;-47
2024/01/13 10:12:36;;;;;;;330.13;82.32;;;;;;;;;;5050855;28;20025;-48
2024/01/13 10:15:11;;;;;;;325.20;84.30;;;;;;;;;;5033142;28;20032;-47
2024/01/13 10:17:38;;;;;;;289.45;79.22;;;;;;;;;;5032902;28;20510;-47
2024/01/13 10:20:08;;;;;;;256.65;75.07;;;;;;;;;;5035160;28;20029;-47
2024/01/13 10:22:37;;;;;;;265.90;78.88;;;;;;;;;;5054404;28;20627;-46
2024/01/13 10:25:03;;;;;;;231.32;77.13;;;;;;;;;;5054215;28;20029;-47
2024/01/13 10:27:30;;;;;;;263.37;76.70;;;;;;;;;;5053231;28;20029;-49
2024/01/13 10:29:56;;;;;;;239.90;74.57;;;;;;;;;;5054193;28;20293;-47
2024/01/13 10:32:22;;;;;;;211.47;74.83;;;;;;;;;;5036590;28;20402;-47
2024/01/13 10:34:50;;;;;;;296.55;77.28;;;;;;;;;;5054168;28;20032;-48
2024/01/13 10:37:16;;;;;;;258.65;76.60;;;;;;;;;;5054523;28;20036;-47
2024/01/13 10:39:43;;;;;;;283.40;85.27;;;;;;;;;;5054134;28;20032;-47
2024/01/13 10:42:09;;;;;;;248.77;77.70;;;;;;;;;;5052969;28;20025;-47
2024/01/13 10:44:42;;;;;;;226.95;75.35;;;;;;;;;;5052661;28;20029;-48
2024/01/13 10:47:13;;;;;;;270.42;76.07;;;;;;;;;;5054134;28;20063;-47
2024/01/13 10:49:41;;;;;;;277.40;76.85;;;;;;;;;;5053951;28;20044;-47
2024/01/13 10:52:07;;;;;;;275.70;78.68;;;;;;;;;;5035872;28;20025;-46
2024/01/13 10:54:34;;;;;;;232.67;82.53;;;;;;;;;;5035911;28;20033;-47
2024/01/13 10:57:00;;;;;;;194.30;71.00;;;;;;;;;;5053768;28;20017;-50
2024/01/13 10:59:32;;;;;;;233.85;72.20;;;;;;;;;;5053826;28;20088;-51
2024/01/13 11:01:59;;;;;;;170.05;68.47;;;;;;;;;;5052669;28;20032;-48
2024/01/13 11:04:25;;;;;;;203.38;74.40;;;;;;;;;;5052646;28;20414;-48
2024/01/13 11:06:52;;;;;;;291.83;81.30;;;;;;;;;;5053644;28;20512;-47
2024/01/13 11:09:18;;;;;;;222.83;75.70;;;;;;;;;;5052451;28;20028;-50
2024/01/13 11:11:51;;;;;;;214.15;76.45;;;;;;;;;;5053535;28;20510;-49
2024/01/13 11:14:25;;;;;;;299.10;85.93;;;;;;;;;;5052289;28;20037;-46
2024/01/13 11:16:52;;;;;;;292.63;95.35;;;;;;;;;;5052257;28;20491;-49
2024/01/13 11:19:19;;;;;;;223.90;87.28;;;;;;;;;;5053376;28;20029;-47
2024/01/13 11:21:48;;;;;;;355.15;101.22;;;;;;;;;;5035526;28;20029;-47
2024/01/13 11:24:15;;;;;;;325.90;84.32;;;;;;;;;;5053092;28;20150;-49
2024/01/13 11:26:48;;;;;;;261.40;86.65;;;;;;;;;;5053255;28;20021;-47
2024/01/13 11:29:23;;;;;;;344.10;92.93;;;;;;;;;;5053176;28;20024;-49
2024/01/13 11:31:55;;;;;;;302.63;87.22;;;;;;;;;;5035403;28;20399;-47
2024/01/13 11:34:22;;;;;;;325.75;85.07;;;;;;;;;;5052967;28;20025;-49
2024/01/13 11:36:51;;;;;;;387.48;101.55;;;;;;;;;;5052897;28;20033;-47
2024/01/13 11:39:18;;;;;;;231.70;76.68;;;;;;;;;;5035203;28;20075;-47
2024/01/13 11:41:50;;;;;;;203.48;80.25;;;;;;;;;;5053069;28;20025;-48
2024/01/13 11:44:45;;;;;;;279.20;89.32;;;;;;;;;;5052047;28;20458;-46
2024/01/13 11:47:12;;;;;;;230.98;82.10;;;;;;;;;;5032847;28;20044;-50
2024/01/13 11:49:38;;;;;;;223.68;82.65;;;;;;;;;;5052360;28;20021;-50
2024/01/13 11:52:05;;;;;;;261.88;82.63;;;;;;;;;;5052330;28;20029;-46
2024/01/13 11:54:32;;;;;;;288.92;87.43;;;;;;;;;;5052267;28;20025;-47
2024/01/13 11:56:59;;;;;;;261.02;81.20;;;;;;;;;;5052661;28;20029;-47
2024/01/13 11:59:26;;;;;;;227.52;64.72;;;;;;;;;;5052175;28;20027;-48
2024/01/13 12:01:55;;;;;;;271.80;86.90;;;;;;;;;;5052340;28;20438;-49
2024/01/13 12:04:21;;;;;;;282.33;86.30;;;;;;;;;;5034194;28;20871;-50
2024/01/13 12:06:49;;;;;;;228.10;77.03;;;;;;;;;;5052179;28;20021;-47
2024/01/13 12:09:16;;;;;;;;;;;;;;;;;;5052376;28;20029;-48
2024/01/13 12:11:51;;;;;;;332.10;98.47;;;;;;;;;;5034448;28;19909;-49
2024/01/13 12:14:17;;;;;;;311.40;92.53;;;;;;;;;;5052376;28;20033;-47
2024/01/13 12:16:43;;;;;;;314.90;90.32;;;;;;;;;;5033854;28;20060;-48
2024/01/13 12:19:09;;;;;;;394.73;108.88;;;;;;;;;;5029733;28;20072;-48
2024/01/13 12:21:36;;;;;;;340.20;96.40;;;;;;;;;;5051670;28;20016;-48
2024/01/13 12:24:02;;;;;;;284.63;89.75;;;;;;;;;;5034208;28;20085;-48
2024/01/13 12:26:29;;;;;;;287.88;87.80;;;;;;;;;;5052088;28;20021;-47
2024/01/13 12:28:56;;;;;;;254.65;81.43;;;;;;;;;;5033605;28;20032;-47
2024/01/13 12:31:23;;;;;;;302.58;83.65;;;;;;;;;;5057066;28;20075;-46
2024/01/13 12:33:50;;;;;;;269.65;87.57;;;;;;;;;;5051839;28;20033;-48
2024/01/13 12:36:16;;;;;;;266.33;81.00;;;;;;;;;;5033795;28;20056;-47
2024/01/13 12:38:43;;;;;;;287.60;87.18;;;;;;;;;;5033912;28;20036;-47
2024/01/13 12:41:09;;;;;;;269.47;84.13;;;;;;;;;;5066197;28;20041;-49
2024/01/13 12:43:38;;;;;;;241.40;82.95;;;;;;;;;;5051011;28;20036;-48
2024/01/13 12:46:04;;;;;;;251.90;82.53;;;;;;;;;;5051646;28;20120;-49
2024/01/13 12:48:30;;;;;;;233.02;83.20;;;;;;;;;;5033303;28;20079;-48
2024/01/13 12:50:57;;;;;;;216.68;81.45;;;;;;;;;;5048867;28;20039;-47
2024/01/13 12:53:27;;;;;;;261.33;89.68;;;;;;;;;;5050204;28;20100;-46
2024/01/13 12:55:54;;;;;;;212.57;79.63;;;;;;;;;;5049992;28;20567;-47
2024/01/13 12:58:21;;;;;;;266.30;93.28;;;;;;;;;;5049603;28;20064;-48
2024/01/13 13:00:47;;;;;;;247.33;86.63;;;;;;;;;;5049946;28;20083;-47
2024/01/13 13:03:13;;;;;;;217.98;81.65;;;;;;;;;;5049570;28;20146;-47
2024/01/13 13:05:40;;;;;;;258.02;86.68;;;;;;;;;;5048997;28;20029;-48
2024/01/13 13:08:06;;;;;;;267.80;91.93;;;;;;;;;;5031133;28;20092;-50
2024/01/13 13:10:32;;;;;;;224.70;82.03;;;;;;;;;;5031823;28;20477;-48
2024/01/13 13:13:02;;;;;;;244.30;81.60;;;;;;;;;;5060402;28;20071;-51
2024/01/13 13:15:29;;;;;;;230.25;81.72;;;;;;;;;;5035644;28;20476;-49
2024/01/13 13:17:55;;;;;;;223.55;83.50;;;;;;;;;;5046436;28;20051;-52
2024/01/13 13:20:21;;;;;;;202.02;78.57;;;;;;;;;;5049664;28;20162;-48
2024/01/13 13:22:47;;;;;;;219.07;79.82;;;;;;;;;;5049674;28;20110;-47
2024/01/13 13:25:15;;;;;;;215.65;79.57;;;;;;;;;;5031738;28;20041;-48
2024/01/13 13:27:41;;;;;;;196.68;79.45;;;;;;;;;;5049305;28;20029;-47
2024/01/13 13:30:07;;;;;;;210.13;83.00;;;;;;;;;;5049344;28;20036;-50
2024/01/13 13:32:34;;;;;;;153.60;62.70;;;;;;;;;;5031765;28;20033;-48
2024/01/13 13:35:00;;;;;;;185.85;78.03;;;;;;;;;;5049644;28;20071;-48
2024/01/13 13:37:26;;;;;;;184.68;81.28;;;;;;;;;;5049470;28;20065;-50
2024/01/13 13:39:52;;;;;;;188.20;75.50;;;;;;;;;;5031388;28;20128;-47
2024/01/13 13:42:19;;;;;;;193.77;78.32;;;;;;;;;;5031388;28;20040;-50
2024/01/13 13:44:45;;;;;;;189.85;78.13;;;;;;;;;;5031603;28;20135;-51
2024/01/13 13:47:11;;;;;;;191.98;77.20;;;;;;;;;;5049304;28;20445;-48
2024/01/13 13:49:37;;;;;;;198.98;81.68;;;;;;;;;;5049119;28;20021;-50
2024/01/13 13:52:04;;;;;;;203.63;77.97;;;;;;;;;;5031700;28;20108;-47
2024/01/13 13:54:30;;;;;;;191.47;83.27;;;;;;;;;;5051052;28;20033;-51
2024/01/13 13:56:58;;;;;;;192.83;78.47;;;;;;;;;;5053690;28;20299;-47
2024/01/13 13:59:24;;;;;;;199.80;85.10;;;;;;;;;;5035624;28;20037;-51
2024/01/13 14:01:51;;;;;;;201.80;82.70;;;;;;;;;;5053180;28;20143;-51
2024/01/13 14:04:17;;;;;;;177.65;75.88;;;;;;;;;;5052618;28;20259;-49
2024/01/13 14:06:43;;;;;;;181.30;73.70;;;;;;;;;;5053125;28;20067;-52
2024/01/13 14:09:10;;;;;;;178.03;76.97;;;;;;;;;;5052834;28;20040;-50